Time;durP1;ratioP1;P1;durP2;ratioP2;P2;SDS_P1;SDS_P2;PMS_P1;PMS_P2;Temp;Humidity;BMP_temperature;BMP_pressure;BME280_temperature;BME280_humidity;BME280_pressure;Samples;Min_cycle;Max_cycle;Signal;HPM_P1;HPM_P2
2023/03/15 00:01:14;;;;;;;6.88;2.17;;;3.50;1.00;;;;;;5005673;28;20441;-61
2023/03/15 00:03:41;;;;;;;15.15;2.40;;;3.60;99.90;;;;;;5006850;28;20544;-63
2023/03/15 00:06:09;;;;;;;9.48;2.30;;;3.60;99.90;;;;;;5003382;28;20422;-61
2023/03/15 00:08:35;;;;;;;10.90;2.60;;;3.60;1.00;;;;;;5002504;28;20476;-62
2023/03/15 00:11:02;;;;;;;11.48;2.90;;;3.60;1.00;;;;;;5004217;28;20404;-62
2023/03/15 00:13:30;;;;;;;8.82;2.65;;;3.70;99.90;;;;;;5003038;28;20514;-60
2023/03/15 00:15:59;;;;;;;10.30;2.35;;;3.60;1.00;;;;;;5001649;28;20414;-63
2023/03/15 00:18:26;;;;;;;10.07;2.50;;;3.70;99.90;;;;;;5003453;28;20478;-60
2023/03/15 00:20:53;;;;;;;8.95;2.58;;;3.70;99.90;;;;;;5003732;28;20433;-60
2023/03/15 00:23:20;;;;;;;9.52;3.00;;;3.70;1.00;;;;;;5000479;28;20405;-59
2023/03/15 00:25:48;;;;;;;12.10;3.20;;;3.70;5.90;;;;;;5005571;28;20486;-61
2023/03/15 00:28:15;;;;;;;11.27;3.78;;;3.70;99.90;;;;;;5001315;28;20422;-59
2023/03/15 00:30:43;;;;;;;15.07;3.50;;;3.60;1.00;;;;;;5002657;28;20538;-59
2023/03/15 00:33:12;;;;;;;13.88;3.58;;;3.60;1.00;;;;;;5003678;28;20475;-59
2023/03/15 00:35:40;;;;;;;10.15;3.35;;;3.60;99.90;;;;;;5002031;28;20461;-59
2023/03/15 00:38:07;;;;;;;13.90;3.97;;;3.60;1.00;;;;;;5000913;28;20426;-58
2023/03/15 00:40:36;;;;;;;12.25;3.72;;;3.60;1.00;;;;;;5003046;28;20467;-57
2023/03/15 00:43:03;;;;;;;15.23;4.15;;;3.60;1.00;;;;;;5003199;28;20416;-60
2023/03/15 00:45:30;;;;;;;12.23;4.50;;;3.60;1.00;;;;;;5001047;28;20849;-60
2023/03/15 00:47:58;;;;;;;12.73;4.72;;;3.60;1.00;;;;;;5002240;28;20421;-59
2023/03/15 00:50:25;;;;;;;12.18;4.30;;;3.60;1.00;;;;;;5002967;28;20896;-59
2023/03/15 00:52:52;;;;;;;12.40;5.20;;;3.60;1.00;;;;;;5002928;28;20787;-61
2023/03/15 00:55:20;;;;;;;11.07;4.72;;;3.60;1.00;;;;;;5007104;28;20418;-61
2023/03/15 00:57:47;;;;;;;13.13;4.70;;;3.50;19.20;;;;;;5000870;28;20928;-58
2023/03/15 01:00:18;;;;;;;11.07;5.18;;;3.50;39.80;;;;;;5001551;28;21022;-59
2023/03/15 01:02:46;;;;;;;12.77;5.37;;;3.40;59.20;;;;;;5001166;28;20406;-59
2023/03/15 01:05:14;;;;;;;10.40;5.05;;;3.30;88.80;;;;;;5001525;28;20465;-61
2023/03/15 01:07:40;;;;;;;11.75;4.93;;;3.30;97.50;;;;;;5003089;28;20416;-59
2023/03/15 01:10:08;;;;;;;14.32;5.32;;;3.20;99.90;;;;;;5001425;28;20418;-56
2023/03/15 01:12:35;;;;;;;10.43;5.20;;;3.20;99.90;;;;;;5000380;28;20433;-58
2023/03/15 01:15:04;;;;;;;9.00;5.90;;;3.10;99.90;;;;;;5002319;28;20420;-59
2023/03/15 01:17:31;;;;;;;11.07;6.05;;;3.00;99.90;;;;;;5002753;28;20462;-60
2023/03/15 01:19:58;;;;;;;12.65;6.57;;;3.00;99.90;;;;;;4991854;28;20785;-59
2023/03/15 01:22:27;;;;;;;15.23;7.93;;;3.00;99.90;;;;;;4991707;28;20484;-61
2023/03/15 01:24:53;;;;;;;15.65;9.02;;;3.00;99.90;;;;;;5012099;28;20421;-59
2023/03/15 01:27:20;;;;;;;14.73;10.13;;;2.90;99.90;;;;;;4999068;28;20513;-59
2023/03/15 01:29:47;;;;;;;16.95;10.32;;;2.90;99.90;;;;;;5002669;28;20463;-61
2023/03/15 01:32:14;;;;;;;14.00;9.35;;;3.00;99.90;;;;;;5000307;28;20410;-59
2023/03/15 01:34:42;;;;;;;13.32;9.43;;;2.80;99.90;;;;;;5000915;28;20422;-60
2023/03/15 01:37:13;;;;;;;13.50;8.15;;;2.80;99.90;;;;;;5002380;28;20922;-59
2023/03/15 01:39:41;;;;;;;12.68;8.80;;;2.70;99.90;;;;;;5001813;28;20835;-60
2023/03/15 01:42:08;;;;;;;10.18;7.40;;;2.60;99.90;;;;;;4999111;28;20476;-59
2023/03/15 01:44:53;;;;;;;11.32;7.70;;;2.50;99.90;;;;;;5001410;28;20468;-61
2023/03/15 01:47:20;;;;;;;10.13;7.13;;;2.40;99.90;;;;;;5001369;28;21258;-59
2023/03/15 01:49:50;;;;;;;9.60;7.10;;;2.40;99.90;;;;;;4999831;28;20426;-59
2023/03/15 01:52:21;;;;;;;12.70;7.00;;;2.40;99.90;;;;;;5000970;28;20401;-61
2023/03/15 01:54:53;;;;;;;11.95;7.32;;;2.40;99.90;;;;;;5010336;28;20815;-61
2023/03/15 01:57:23;;;;;;;9.90;6.57;;;2.30;99.90;;;;;;5002594;28;20416;-59
2023/03/15 01:59:54;;;;;;;11.73;7.28;;;2.30;99.90;;;;;;5002071;28;20895;-60
2023/03/15 02:02:23;;;;;;;10.18;7.60;;;2.30;99.90;;;;;;5001904;28;20478;-60
2023/03/15 02:04:55;;;;;;;11.05;8.20;;;2.20;99.90;;;;;;4999801;28;20861;-61
2023/03/15 02:07:26;;;;;;;10.95;8.00;;;2.30;99.90;;;;;;5003701;28;20420;-61
2023/03/15 02:10:00;;;;;;;11.15;8.43;;;2.20;99.90;;;;;;4999880;28;20410;-59
2023/03/15 02:12:30;;;;;;;11.32;7.88;;;2.30;99.90;;;;;;4999821;28;20778;-59
2023/03/15 02:15:00;;;;;;;10.18;8.07;;;2.30;99.90;;;;;;5001061;28;20467;-60
2023/03/15 02:17:33;;;;;;;10.23;7.47;;;2.40;99.90;;;;;;5002421;28;20479;-59
2023/03/15 02:20:09;;;;;;;11.40;8.00;;;2.40;99.90;;;;;;5001044;28;20420;-60
2023/03/15 02:22:45;;;;;;;8.93;7.20;;;2.50;99.90;;;;;;4992436;28;20426;-59
2023/03/15 02:25:21;;;;;;;12.25;8.20;;;2.60;99.90;;;;;;5011013;28;20496;-60
2023/03/15 02:27:49;;;;;;;10.27;7.60;;;2.50;99.90;;;;;;5005992;28;20414;-60
2023/03/15 02:30:15;;;;;;;11.50;7.82;;;2.30;99.90;;;;;;5008047;28;20420;-60
2023/03/15 02:32:42;;;;;;;11.52;7.93;;;2.30;99.90;;;;;;5007993;28;20416;-58
2023/03/15 02:35:10;;;;;;;10.52;6.78;;;2.50;99.90;;;;;;5005931;28;20464;-60
2023/03/15 02:37:36;;;;;;;9.93;6.72;;;2.50;99.90;;;;;;5006983;28;20470;-60
2023/03/15 02:40:16;;;;;;;10.63;7.43;;;2.50;99.90;;;;;;5008325;28;20471;-61
2023/03/15 02:42:43;;;;;;;10.85;7.43;;;2.60;99.90;;;;;;5008680;28;20429;-61
2023/03/15 02:45:11;;;;;;;12.52;7.93;;;2.60;99.90;;;;;;4997591;28;20842;-59
2023/03/15 02:47:39;;;;;;;11.18;7.78;;;2.60;99.90;;;;;;4997238;28;20426;-60
2023/03/15 02:50:07;;;;;;;12.07;7.85;;;2.70;99.90;;;;;;4997062;28;20842;-57
2023/03/15 02:52:34;;;;;;;10.85;7.60;;;2.70;99.90;;;;;;4997671;28;20406;-58
2023/03/15 02:55:01;;;;;;;13.35;8.05;;;2.80;99.90;;;;;;5011235;28;20418;-61
2023/03/15 02:57:28;;;;;;;11.95;7.82;;;2.80;99.90;;;;;;5009902;28;20509;-60
2023/03/15 02:59:55;;;;;;;10.90;7.78;;;2.90;99.90;;;;;;5006237;28;20494;-61
2023/03/15 03:02:23;;;;;;;10.27;8.05;;;2.90;99.90;;;;;;5005952;28;20433;-58
2023/03/15 03:04:51;;;;;;;11.68;8.77;;;2.90;99.90;;;;;;5006320;28;20472;-58
2023/03/15 03:07:18;;;;;;;12.68;9.40;;;2.80;99.90;;;;;;5008265;28;20416;-61
2023/03/15 03:09:45;;;;;;;15.27;10.88;;;2.70;99.90;;;;;;5006701;28;20449;-59
2023/03/15 03:12:13;;;;;;;16.15;11.38;;;2.60;99.90;;;;;;5004702;28;22320;-61
2023/03/15 03:14:42;;;;;;;18.02;11.52;;;2.70;99.90;;;;;;5007838;28;20468;-59
2023/03/15 03:17:09;;;;;;;17.65;12.70;;;2.70;99.90;;;;;;5007870;28;20877;-59
2023/03/15 03:19:37;;;;;;;21.75;14.63;;;2.60;99.90;;;;;;4996984;28;20461;-60
2023/03/15 03:22:04;;;;;;;22.05;14.95;;;2.70;99.90;;;;;;4997041;28;20427;-58
2023/03/15 03:24:31;;;;;;;21.90;14.88;;;2.70;99.90;;;;;;5009236;28;20559;-57
2023/03/15 03:26:57;;;;;;;21.90;14.85;;;2.80;99.90;;;;;;5009292;28;20424;-59
2023/03/15 03:29:24;;;;;;;20.00;14.65;;;2.60;99.90;;;;;;5008106;28;20772;-59
2023/03/15 03:31:51;;;;;;;17.10;13.13;;;2.50;99.90;;;;;;5005644;28;21171;-58
2023/03/15 03:34:18;;;;;;;18.85;13.45;;;2.50;99.90;;;;;;5004913;28;20461;-58
2023/03/15 03:36:47;;;;;;;17.90;13.07;;;2.40;99.90;;;;;;5004566;28;20476;-59
2023/03/15 03:39:14;;;;;;;18.42;12.30;;;2.50;99.90;;;;;;5003791;28;20822;-61
2023/03/15 03:41:40;;;;;;;18.52;12.82;;;2.60;99.90;;;;;;5001892;28;20430;-59
2023/03/15 03:44:07;;;;;;;17.92;13.05;;;2.60;99.90;;;;;;5004100;28;20420;-59
2023/03/15 03:46:35;;;;;;;15.63;11.93;;;2.60;99.90;;;;;;5004068;28;20440;-60
2023/03/15 03:49:01;;;;;;;15.75;11.30;;;2.70;99.90;;;;;;5002281;28;20426;-60
2023/03/15 03:51:28;;;;;;;14.82;9.85;;;2.70;99.90;;;;;;5003275;28;20424;-60
2023/03/15 03:53:56;;;;;;;13.98;10.05;;;2.60;99.90;;;;;;5011495;28;20819;-59
2023/03/15 03:56:23;;;;;;;10.20;7.63;;;2.50;99.90;;;;;;5006998;28;20825;-61
2023/03/15 03:58:49;;;;;;;10.55;7.28;;;2.50;99.90;;;;;;5002152;28;20485;-59
2023/03/15 04:01:16;;;;;;;8.77;5.82;;;2.40;99.90;;;;;;5001869;28;20840;-61
2023/03/15 04:03:43;;;;;;;8.65;5.85;;;2.50;99.90;;;;;;5002928;28;20425;-59
2023/03/15 04:06:10;;;;;;;8.23;5.72;;;2.70;99.90;;;;;;5004015;28;20761;-60
2023/03/15 04:08:37;;;;;;;7.22;5.80;;;2.70;99.90;;;;;;5002510;28;20469;-59
2023/03/15 04:11:05;;;;;;;8.27;5.63;;;2.70;99.90;;;;;;5002060;28;20472;-59
2023/03/15 04:13:32;;;;;;;7.68;6.13;;;2.70;99.90;;;;;;5001961;28;20410;-58
2023/03/15 04:16:01;;;;;;;8.02;6.30;;;2.80;99.90;;;;;;5002173;28;20425;-58
2023/03/15 04:18:28;;;;;;;9.75;6.93;;;2.70;99.90;;;;;;5004131;28;20779;-59
2023/03/15 04:20:55;;;;;;;10.65;7.13;;;2.70;99.90;;;;;;5002392;28;20418;-59
2023/03/15 04:23:22;;;;;;;9.77;7.20;;;2.60;99.90;;;;;;5007544;28;20479;-59
2023/03/15 04:25:49;;;;;;;11.57;7.60;;;2.60;99.90;;;;;;5006130;28;20474;-60
2023/03/15 04:28:19;;;;;;;13.30;8.48;;;2.60;99.90;;;;;;5003439;28;20513;-57
2023/03/15 04:30:48;;;;;;;11.85;8.27;;;2.60;99.90;;;;;;5001742;28;20417;-59
2023/03/15 04:33:15;;;;;;;13.15;8.20;;;2.70;99.90;;;;;;5060707;23;20869;-61
2023/03/15 04:35:42;;;;;;;11.33;7.90;;;2.70;99.90;;;;;;5083573;28;20952;-62
2023/03/15 04:38:09;;;;;;;13.63;9.23;;;2.70;99.90;;;;;;5082634;28;20415;-62
2023/03/15 04:40:35;;;;;;;16.40;8.75;;;2.70;99.90;;;;;;5081319;28;20811;-62
2023/03/15 04:43:04;;;;;;;13.75;9.05;;;2.80;99.90;;;;;;5068074;28;20485;-61
2023/03/15 04:45:33;;;;;;;13.45;9.50;;;2.80;99.90;;;;;;5040845;28;20464;-60
2023/03/15 04:48:01;;;;;;;17.55;11.10;;;2.70;99.90;;;;;;5041219;28;20415;-60
2023/03/15 04:50:29;;;;;;;16.35;11.10;;;2.60;99.90;;;;;;5043601;28;20508;-60
2023/03/15 04:52:57;;;;;;;16.20;10.63;;;2.70;99.90;;;;;;5044555;28;20413;-61
2023/03/15 04:55:23;;;;;;;18.47;11.43;;;2.60;99.90;;;;;;5049320;28;20565;-63
2023/03/15 04:57:50;;;;;;;16.83;11.10;;;2.70;99.90;;;;;;5040715;28;20411;-61
2023/03/15 05:00:17;;;;;;;15.77;11.57;;;2.80;99.90;;;;;;5042558;28;20413;-61
2023/03/15 05:02:50;;;;;;;21.15;13.10;;;2.80;99.90;;;;;;5042734;28;20972;-61
2023/03/15 05:05:17;;;;;;;20.33;14.00;;;2.80;99.90;;;;;;5032793;28;20438;-62
2023/03/15 05:07:44;;;;;;;19.83;13.80;;;2.80;99.90;;;;;;5032453;28;20415;-61
2023/03/15 05:10:11;;;;;;;19.83;14.27;;;2.90;99.90;;;;;;5032240;28;20473;-61
2023/03/15 05:12:38;;;;;;;20.67;13.65;;;2.90;99.90;;;;;;5036316;28;20410;-60
2023/03/15 05:15:05;;;;;;;19.83;12.73;;;2.90;99.90;;;;;;5043926;28;20409;-61
2023/03/15 05:17:32;;;;;;;18.05;12.45;;;2.90;99.90;;;;;;5041432;28;20465;-61
2023/03/15 05:20:00;;;;;;;16.10;11.50;;;2.90;99.90;;;;;;5040459;28;20964;-62
2023/03/15 05:22:27;;;;;;;13.23;9.82;;;3.00;99.90;;;;;;5044207;28;20449;-62
2023/03/15 05:24:54;;;;;;;12.70;9.68;;;3.00;99.90;;;;;;5053203;28;20420;-62
2023/03/15 05:27:20;;;;;;;15.43;10.40;;;3.00;99.90;;;;;;5046888;28;20832;-62
2023/03/15 05:29:47;;;;;;;12.25;9.68;;;2.90;99.90;;;;;;5041378;28;20410;-61
2023/03/15 05:32:14;;;;;;;16.35;10.88;;;2.80;99.90;;;;;;5042754;28;20463;-63
2023/03/15 05:34:41;;;;;;;16.55;11.23;;;2.70;99.90;;;;;;5040213;28;20824;-61
2023/03/15 05:37:11;;;;;;;16.73;11.70;;;2.60;99.90;;;;;;5040669;28;20407;-62
2023/03/15 05:39:37;;;;;;;17.75;12.20;;;2.70;99.90;;;;;;5039934;28;20928;-62
2023/03/15 05:42:05;;;;;;;19.80;12.80;;;2.70;99.90;;;;;;5043306;28;20432;-62
2023/03/15 05:44:31;;;;;;;17.30;13.60;;;2.60;99.90;;;;;;5052330;28;20957;-62
2023/03/15 05:46:58;;;;;;;20.23;13.70;;;2.70;99.90;;;;;;5052732;28;20451;-62
2023/03/15 05:49:25;;;;;;;18.33;13.95;;;2.60;99.90;;;;;;5045310;28;20490;-62
2023/03/15 05:51:51;;;;;;;20.17;13.77;;;2.60;99.90;;;;;;5036001;28;20479;-62
2023/03/15 05:54:19;;;;;;;19.05;13.65;;;2.50;99.90;;;;;;5050836;28;20487;-62
2023/03/15 05:56:46;;;;;;;20.23;14.93;;;2.50;99.90;;;;;;5048291;28;20417;-62
2023/03/15 05:59:13;;;;;;;22.63;15.50;;;2.50;99.90;;;;;;5040131;28;20473;-62
2023/03/15 06:01:39;;;;;;;20.38;14.98;;;2.50;99.90;;;;;;5040377;28;20407;-62
2023/03/15 06:04:06;;;;;;;22.10;15.50;;;2.50;99.90;;;;;;5041031;28;20477;-61
2023/03/15 06:06:32;;;;;;;22.35;15.43;;;2.40;99.90;;;;;;5040539;28;20419;-62
2023/03/15 06:08:59;;;;;;;22.13;16.20;;;2.50;99.90;;;;;;5042266;28;20535;-61
2023/03/15 06:11:27;;;;;;;23.10;17.00;;;2.30;99.90;;;;;;5040164;28;20422;-62
2023/03/15 06:13:54;;;;;;;26.77;16.85;;;2.40;99.90;;;;;;5039350;28;20469;-62
2023/03/15 06:16:20;;;;;;;24.33;17.13;;;2.40;99.90;;;;;;5041537;28;20413;-61
2023/03/15 06:18:47;;;;;;;25.85;17.67;;;2.40;99.90;;;;;;5041452;28;20413;-59
2023/03/15 06:21:14;;;;;;;25.75;18.23;;;2.50;99.90;;;;;;5052198;28;20414;-62
2023/03/15 06:23:41;;;;;;;26.43;18.40;;;2.50;99.90;;;;;;5049698;28;20935;-63
2023/03/15 06:26:07;;;;;;;27.02;18.48;;;2.50;99.90;;;;;;5047645;28;20481;-64
2023/03/15 06:28:36;;;;;;;31.60;20.33;;;2.50;99.90;;;;;;5045481;28;20989;-62
2023/03/15 06:31:07;;;;;;;30.65;20.98;;;2.60;99.90;;;;;;5049311;28;20944;-66
2023/03/15 06:33:33;;;;;;;32.95;21.83;;;2.70;99.90;;;;;;5046902;28;20961;-66
2023/03/15 06:36:00;;;;;;;27.45;19.80;;;3.00;99.90;;;;;;5047486;28;20422;-62
2023/03/15 06:38:27;;;;;;;26.13;19.02;;;3.20;99.90;;;;;;5041077;28;20413;-65
2023/03/15 06:40:57;;;;;;;27.13;19.67;;;3.30;99.90;;;;;;5040051;28;20435;-64
2023/03/15 06:43:23;;;;;;;32.40;21.38;;;3.20;99.90;;;;;;5038208;28;20976;-64
2023/03/15 06:45:54;;;;;;;29.90;20.85;;;3.00;99.90;;;;;;5047818;28;20405;-64
2023/03/15 06:48:21;;;;;;;32.03;21.52;;;3.00;99.90;;;;;;5046333;28;20496;-65
2023/03/15 06:50:48;;;;;;;32.00;21.27;;;3.00;99.90;;;;;;5046889;28;20413;-63
2023/03/15 06:53:16;;;;;;;35.30;23.17;;;2.90;99.90;;;;;;5043769;28;20439;-62
2023/03/15 06:55:43;;;;;;;35.88;23.55;;;2.80;99.90;;;;;;5041635;28;20471;-61
2023/03/15 06:58:10;;;;;;;37.60;25.30;;;2.80;99.90;;;;;;5050485;28;20816;-62
2023/03/15 07:00:37;;;;;;;37.35;25.15;;;2.80;99.90;;;;;;5049659;28;20463;-61
2023/03/15 07:03:05;;;;;;;34.72;24.38;;;2.90;99.90;;;;;;5041174;28;20803;-60
2023/03/15 07:05:31;;;;;;;37.60;24.75;;;3.00;99.90;;;;;;5040395;28;20418;-60
2023/03/15 07:07:59;;;;;;;34.90;22.80;;;3.10;99.90;;;;;;5038446;28;20469;-58
2023/03/15 07:10:25;;;;;;;37.90;25.02;;;3.00;99.90;;;;;;5041988;28;20769;-60
2023/03/15 07:12:52;;;;;;;37.55;24.85;;;2.90;99.90;;;;;;5054672;28;20467;-60
2023/03/15 07:15:19;;;;;;;36.47;24.10;;;3.00;99.90;;;;;;5050177;28;20422;-60
2023/03/15 07:17:45;;;;;;;36.13;24.85;;;3.10;99.90;;;;;;5055530;28;20459;-61
2023/03/15 07:20:14;;;;;;;36.00;25.92;;;3.20;99.90;;;;;;5051758;28;20414;-63
2023/03/15 07:22:40;;;;;;;33.97;23.52;;;3.40;99.90;;;;;;5048968;28;20915;-63
2023/03/15 07:25:08;;;;;;;34.85;24.90;;;3.50;99.90;;;;;;5049924;28;20497;-62
2023/03/15 07:27:35;;;;;;;34.00;23.77;;;3.60;99.90;;;;;;5041823;28;20414;-63
2023/03/15 07:30:01;;;;;;;35.73;24.00;;;3.60;99.90;;;;;;5041915;28;20419;-63
2023/03/15 07:32:29;;;;;;;33.72;24.08;;;3.50;99.90;;;;;;5053681;28;20407;-61
2023/03/15 07:34:59;;;;;;;34.23;24.20;;;3.50;99.90;;;;;;5045757;28;20451;-61
2023/03/15 07:37:27;;;;;;;35.28;24.50;;;3.60;99.90;;;;;;5052886;28;20412;-61
2023/03/15 07:39:54;;;;;;;37.80;24.75;;;3.50;99.90;;;;;;5049262;28;20470;-60
2023/03/15 07:42:21;;;;;;;36.13;24.73;;;3.40;99.90;;;;;;5054118;28;20419;-61
2023/03/15 07:44:47;;;;;;;37.05;23.85;;;3.40;99.90;;;;;;5042901;28;20428;-61
2023/03/15 07:47:14;;;;;;;31.58;21.33;;;3.50;99.90;;;;;;5043501;28;20417;-61
2023/03/15 07:49:41;;;;;;;30.50;21.77;;;3.50;99.90;;;;;;5032683;28;20415;-61
2023/03/15 07:52:08;;;;;;;28.17;19.20;;;3.50;99.90;;;;;;5032782;28;20474;-61
2023/03/15 07:54:36;;;;;;;27.58;19.42;;;3.50;99.90;;;;;;5046482;28;20413;-61
2023/03/15 07:57:03;;;;;;;26.25;20.35;;;3.50;99.90;;;;;;5047112;28;20413;-60
2023/03/15 07:59:30;;;;;;;25.98;18.67;;;3.60;99.90;;;;;;5043500;28;20409;-62
2023/03/15 08:01:57;;;;;;;22.05;16.40;;;3.60;99.90;;;;;;5049970;28;21163;-61
2023/03/15 08:04:24;;;;;;;23.38;15.93;;;3.60;99.90;;;;;;5048157;28;20430;-64
2023/03/15 08:06:50;;;;;;;21.73;16.02;;;3.50;99.90;;;;;;5041011;28;20465;-64
2023/03/15 08:09:17;;;;;;;22.38;16.88;;;3.50;99.90;;;;;;5042976;28;20475;-62
2023/03/15 08:11:45;;;;;;;20.40;15.43;;;3.50;99.90;;;;;;5043484;28;20449;-64
2023/03/15 08:14:11;;;;;;;17.95;14.02;;;3.70;99.90;;;;;;5041515;28;20419;-64
2023/03/15 08:16:38;;;;;;;21.23;15.40;;;3.90;99.90;;;;;;5041069;28;20415;-62
2023/03/15 08:19:05;;;;;;;19.70;15.15;;;4.10;99.90;;;;;;5041357;28;20468;-62
2023/03/15 08:21:32;;;;;;;17.77;13.02;;;4.20;99.90;;;;;;5055168;28;20418;-63
2023/03/15 08:23:59;;;;;;;17.95;13.63;;;4.20;92.80;;;;;;5045252;28;20874;-64
2023/03/15 08:26:26;;;;;;;17.33;13.98;;;4.20;75.80;;;;;;5046612;28;20423;-64
2023/03/15 08:28:54;;;;;;;16.80;13.07;;;4.40;63.60;;;;;;5041071;28;20925;-65
2023/03/15 08:31:22;;;;;;;19.88;14.40;;;4.50;26.80;;;;;;5043401;28;20417;-63
2023/03/15 08:33:49;;;;;;;18.02;13.77;;;4.60;45.80;;;;;;5042238;28;20466;-62
2023/03/15 08:36:15;;;;;;;15.93;13.43;;;4.60;33.50;;;;;;5040900;28;20419;-62
2023/03/15 08:38:42;;;;;;;16.17;12.10;;;4.60;20.90;;;;;;5042032;28;20490;-61
2023/03/15 08:41:09;;;;;;;16.50;12.23;;;4.50;1.40;;;;;;5054103;28;20418;-61
2023/03/15 08:43:35;;;;;;;17.53;12.90;;;4.60;5.50;;;;;;5040034;28;20488;-61
2023/03/15 08:46:03;;;;;;;21.80;13.93;;;4.60;1.00;;;;;;5041650;28;20527;-61
2023/03/15 08:48:30;;;;;;;18.40;13.10;;;4.70;19.10;;;;;;5042952;28;20467;-62
2023/03/15 08:51:02;;;;;;;16.17;11.43;;;4.70;15.40;;;;;;5041591;28;20455;-62
2023/03/15 08:53:28;;;;;;;17.02;11.73;;;5.00;7.30;;;;;;5046025;28;20840;-63
2023/03/15 08:55:55;;;;;;;18.73;10.98;;;5.10;1.00;;;;;;5051662;28;20968;-63
2023/03/15 08:58:22;;;;;;;16.80;11.37;;;5.10;1.00;;;;;;5043040;28;20423;-61
2023/03/15 09:00:49;;;;;;;16.63;11.15;;;5.20;1.00;;;;;;5049604;28;20413;-61
2023/03/15 09:03:18;;;;;;;14.02;9.90;;;5.30;1.00;;;;;;5043265;28;20482;-62
2023/03/15 09:05:46;;;;;;;13.68;9.95;;;5.30;1.00;;;;;;5041539;28;20500;-61
2023/03/15 09:08:15;;;;;;;16.67;10.25;;;5.30;1.00;;;;;;5052579;28;20413;-61
2023/03/15 09:10:42;;;;;;;17.13;9.90;;;5.10;1.00;;;;;;5043629;28;20423;-62
2023/03/15 09:13:09;;;;;;;12.50;8.60;;;5.00;1.00;;;;;;5040916;28;20958;-60
2023/03/15 09:15:35;;;;;;;12.35;8.50;;;4.90;1.00;;;;;;5040117;28;20946;-62
2023/03/15 09:18:02;;;;;;;14.15;8.18;;;5.00;1.00;;;;;;5039613;28;20551;-61
2023/03/15 09:20:30;;;;;;;12.05;8.55;;;5.20;1.00;;;;;;5048722;28;20413;-61
2023/03/15 09:22:58;;;;;;;10.73;6.75;;;5.40;1.00;;;;;;5042537;28;20417;-59
2023/03/15 09:25:27;;;;;;;14.02;7.82;;;5.60;1.00;;;;;;5051834;28;20473;-62
2023/03/15 09:27:54;;;;;;;12.30;7.45;;;5.30;1.00;;;;;;5042298;28;20964;-62
2023/03/15 09:30:20;;;;;;;12.90;6.88;;;5.40;1.00;;;;;;5040340;28;20469;-63
2023/03/15 09:32:47;;;;;;;13.50;6.53;;;5.30;99.90;;;;;;5038962;28;20423;-62
2023/03/15 09:35:16;;;;;;;9.63;6.50;;;5.70;1.00;;;;;;5043609;28;20411;-63
2023/03/15 09:37:44;;;;;;;10.73;6.43;;;5.90;1.00;;;;;;5043099;28;20463;-65
2023/03/15 09:40:17;;;;;;;11.68;7.00;;;6.00;1.00;;;;;;5045452;28;20549;-64
2023/03/15 09:42:57;;;;;;;13.15;7.60;;;5.90;99.90;;;;;;5051287;28;20419;-65
2023/03/15 09:45:30;;;;;;;14.40;7.78;;;5.60;99.90;;;;;;5030877;28;20435;-63
2023/03/15 09:48:04;;;;;;;12.85;6.75;;;5.60;1.00;;;;;;5039394;28;20414;-64
2023/03/15 09:50:34;;;;;;;14.07;5.82;;;5.60;1.00;;;;;;5039409;28;20842;-64
2023/03/15 09:53:06;;;;;;;10.47;6.10;;;5.60;99.90;;;;;;5043384;28;20565;-64
2023/03/15 09:55:33;;;;;;;13.95;5.75;;;5.70;99.90;;;;;;5045697;28;20470;-63
2023/03/15 09:58:01;;;;;;;13.93;7.25;;;5.80;99.90;;;;;;5044833;28;20504;-64
2023/03/15 10:00:36;;;;;;;13.70;7.60;;;5.90;99.90;;;;;;5045771;28;20414;-65
2023/03/15 10:03:06;;;;;;;15.88;7.82;;;6.00;99.90;;;;;;5044840;28;20410;-65
2023/03/15 10:05:39;;;;;;;15.53;8.43;;;5.80;99.90;;;;;;5041528;28;20436;-64
2023/03/15 10:08:11;;;;;;;14.20;7.78;;;6.50;99.90;;;;;;5041072;28;20459;-63
2023/03/15 10:10:46;;;;;;;12.93;8.30;;;5.70;1.00;;;;;;5039660;28;20502;-66
2023/03/15 10:13:45;;;;;;;14.45;9.25;;;5.50;99.90;;;;;;5038700;28;20445;-65
2023/03/15 10:16:25;;;;;;;14.02;9.20;;;5.50;99.90;;;;;;5040235;28;20415;-66
2023/03/15 10:19:04;;;;;;;15.18;9.00;;;5.30;99.90;;;;;;5039881;28;20438;-66
2023/03/15 10:21:40;;;;;;;16.75;8.60;;;5.40;99.90;;;;;;5039458;28;20912;-66
2023/03/15 10:24:18;;;;;;;12.07;7.82;;;5.60;99.90;;;;;;5044083;28;20848;-65
2023/03/15 10:26:44;;;;;;;12.45;6.95;;;5.60;99.90;;;;;;5045885;28;20449;-64
2023/03/15 10:29:16;;;;;;;16.17;8.20;;;5.80;1.00;;;;;;5030553;28;20473;-64
2023/03/15 10:31:46;;;;;;;15.77;9.00;;;5.90;99.90;;;;;;5029995;28;20946;-66
2023/03/15 10:34:14;;;;;;;16.30;8.52;;;6.00;99.90;;;;;;5041001;28;20471;-65
2023/03/15 10:36:48;;;;;;;17.88;9.20;;;6.30;89.80;;;;;;5040887;28;20448;-66
2023/03/15 10:39:17;;;;;;;16.27;9.53;;;6.60;99.90;;;;;;5042003;28;20771;-67
2023/03/15 10:41:45;;;;;;;13.63;7.15;;;6.80;1.00;;;;;;5050949;28;20409;-67
2023/03/15 10:44:15;;;;;;;15.20;7.18;;;7.00;20.50;;;;;;5040500;28;20426;-69
2023/03/15 10:46:41;;;;;;;11.77;6.43;;;7.00;99.90;;;;;;5050700;28;20479;-65
2023/03/15 10:49:10;;;;;;;13.15;6.72;;;7.10;99.90;;;;;;5044942;28;20499;-67
2023/03/15 10:51:40;;;;;;;11.35;5.95;;;7.10;1.00;;;;;;5044534;28;20449;-62
2023/03/15 10:54:12;;;;;;;12.27;6.70;;;7.10;99.90;;;;;;5051318;28;20775;-63
2023/03/15 10:56:45;;;;;;;12.20;6.75;;;7.20;99.90;;;;;;5062798;28;20425;-67
2023/03/15 10:59:17;;;;;;;14.07;7.77;;;8.50;99.90;;;;;;5046931;28;20502;-64
2023/03/15 11:01:47;;;;;;;15.37;7.07;;;7.60;1.00;;;;;;5042356;28;20498;-64
2023/03/15 11:04:17;;;;;;;10.65;4.25;;;7.70;1.00;;;;;;5046358;28;20608;-63
2023/03/15 11:06:47;;;;;;;7.72;3.70;;;7.60;48.00;;;;;;5042961;28;20871;-64
2023/03/15 11:09:15;;;;;;;11.25;4.88;;;7.30;1.00;;;;;;5045670;28;20484;-63
2023/03/15 11:11:52;;;;;;;10.45;4.63;;;7.20;78.60;;;;;;5047336;28;20413;-62
2023/03/15 11:14:19;;;;;;;10.18;5.03;;;7.60;1.00;;;;;;5044584;28;20837;-62
2023/03/15 11:16:49;;;;;;;12.23;6.00;;;7.60;99.90;;;;;;5042467;28;20411;-62
2023/03/15 11:19:18;;;;;;;9.77;5.47;;;7.80;99.90;;;;;;5046311;28;20409;-67
2023/03/15 11:21:46;;;;;;;12.85;6.35;;;8.00;1.00;;;;;;5046656;28;20930;-67
2023/03/15 11:24:22;;;;;;;10.70;5.53;;;8.30;1.00;;;;;;5052266;28;20431;-67
2023/03/15 11:26:53;;;;;;;14.32;7.78;;;8.40;1.00;;;;;;5047702;28;20496;-65
2023/03/15 11:29:23;;;;;;;16.60;7.45;;;8.60;3.80;;;;;;5048122;28;20442;-67
2023/03/15 11:31:51;;;;;;;14.77;6.85;;;8.40;1.00;;;;;;5048466;28;20413;-66
2023/03/15 11:34:25;;;;;;;12.00;5.67;;;8.40;1.00;;;;;;5045560;28;20756;-65
2023/03/15 11:36:55;;;;;;;13.30;6.47;;;8.50;1.00;;;;;;5044026;28;20888;-67
2023/03/15 11:39:29;;;;;;;11.90;6.88;;;8.60;1.00;;;;;;5038885;28;20417;-66
2023/03/15 11:42:05;;;;;;;14.68;7.75;;;8.60;1.00;;;;;;5043246;28;20463;-65
2023/03/15 11:44:38;;;;;;;14.15;6.60;;;8.00;1.00;;;;;;5051415;28;20427;-66
2023/03/15 11:47:12;;;;;;;12.50;6.40;;;7.90;1.00;;;;;;5042544;28;20584;-66
2023/03/15 11:49:45;;;;;;;11.80;6.05;;;7.70;1.00;;;;;;5042063;28;20414;-66
2023/03/15 11:52:12;;;;;;;10.57;5.57;;;7.60;1.00;;;;;;5042283;28;20472;-67
2023/03/15 11:54:39;;;;;;;10.90;5.28;;;7.90;1.00;;;;;;5052227;28;20887;-68
2023/03/15 11:57:33;;;;;;;8.75;4.57;;;8.00;1.00;;;;;;5042094;28;20415;-68
2023/03/15 12:00:45;;;;;;;10.23;5.15;;;8.00;1.00;;;;;;5042470;28;20471;-67
2023/03/15 12:03:35;;;;;;;10.25;4.72;;;8.00;1.00;;;;;;5042693;28;20421;-61
2023/03/15 12:06:32;;;;;;;10.93;4.85;;;8.10;1.00;;;;;;5043548;28;20486;-62
2023/03/15 12:09:01;;;;;;;8.88;4.05;;;7.90;1.00;;;;;;5041403;28;20461;-61
2023/03/15 12:11:40;;;;;;;7.70;3.50;;;7.40;1.00;;;;;;5041226;28;20529;-64
2023/03/15 12:14:26;;;;;;;6.60;3.05;;;7.60;99.90;;;;;;5041369;28;20419;-65
2023/03/15 12:17:17;;;;;;;10.27;3.50;;;8.50;99.90;;;;;;5047717;28;20443;-65
2023/03/15 12:19:44;;;;;;;6.90;2.63;;;7.50;1.00;;;;;;5046950;28;20780;-66
2023/03/15 12:22:16;;;;;;;7.75;2.50;;;7.70;99.90;;;;;;5050768;28;20418;-65
2023/03/15 12:24:46;;;;;;;7.43;2.30;;;7.80;99.90;;;;;;5054140;28;20463;-65
2023/03/15 12:27:16;;;;;;;6.90;2.73;;;7.90;99.90;;;;;;5046268;28;20419;-66
2023/03/15 12:29:45;;;;;;;9.00;2.97;;;8.00;99.90;;;;;;5032657;28;20417;-66
2023/03/15 12:32:14;;;;;;;5.47;2.20;;;7.90;99.90;;;;;;5045227;28;20415;-64
2023/03/15 12:34:46;;;;;;;6.13;3.22;;;7.90;99.90;;;;;;5046941;28;20467;-67
2023/03/15 12:37:16;;;;;;;8.77;3.95;;;8.20;99.90;;;;;;5043240;28;20417;-64
2023/03/15 12:39:49;;;;;;;8.13;2.95;;;8.50;99.90;;;;;;5045433;28;20428;-64
2023/03/15 12:42:55;;;;;;;11.60;3.47;;;8.60;99.90;;;;;;5051785;28;20459;-66
2023/03/15 12:45:49;;;;;;;6.72;2.58;;;8.40;99.90;;;;;;5049051;28;20473;-64
2023/03/15 12:48:26;;;;;;;6.33;2.37;;;8.10;99.90;;;;;;5007508;28;20423;-63
2023/03/15 12:50:59;;;;;;;6.28;2.70;;;8.00;99.90;;;;;;5044053;28;20432;-63
2023/03/15 12:53:44;;;;;;;8.45;3.60;;;7.80;99.90;;;;;;5050517;28;20477;-63
2023/03/15 12:56:41;;;;;;;7.72;2.33;;;7.60;99.90;;;;;;5046793;28;20414;-63